createdAt,value
2022-11-16T00:02:38.815Z,90
2022-11-16T00:13:17.075Z,90
2022-11-16T00:18:36.780Z,90
2022-11-16T00:23:56.278Z,315
2022-11-16T00:29:15.656Z,0
2022-11-16T00:39:54.228Z,225
2022-11-16T00:45:13.338Z,315
2022-11-16T00:55:50.907Z,45
2022-11-16T01:01:09.770Z,90
2022-11-16T01:06:29.072Z,135
2022-11-16T01:11:48.657Z,90
2022-11-16T01:22:27.893Z,45
2022-11-16T01:27:47.290Z,45
2022-11-16T01:38:29.490Z,45
2022-11-16T01:49:04.022Z,45
2022-11-16T01:54:23.049Z,45
2022-11-16T01:59:42.271Z,90
2022-11-16T02:05:02.009Z,45
2022-11-16T02:10:20.962Z,90
2022-11-16T02:15:40.635Z,45
2022-11-16T02:21:00.017Z,90
2022-11-16T02:31:39.294Z,45
2022-11-16T02:36:59.015Z,45
2022-11-16T02:42:17.893Z,90
2022-11-16T02:47:37.026Z,45
2022-11-16T02:58:15.775Z,45
2022-11-16T03:03:35.149Z,45
2022-11-16T03:14:13.766Z,45
2022-11-16T03:19:33.514Z,45
2022-11-16T03:30:11.926Z,90
2022-11-16T03:35:31.395Z,45
2022-11-16T03:40:50.773Z,0
2022-11-16T03:46:10.010Z,45
2022-11-16T03:56:48.168Z,45
2022-11-16T04:02:07.094Z,90
2022-11-16T04:12:45.174Z,0
2022-11-16T04:18:04.729Z,45
2022-11-16T04:23:24.199Z,225
2022-11-16T04:28:43.855Z,270
2022-11-16T04:39:32.245Z,270
2022-11-16T04:44:41.402Z,315
2022-11-16T04:55:20.846Z,270
2022-11-16T05:00:47.918Z,180
2022-11-16T05:05:58.898Z,270
2022-11-16T05:11:27.161Z,0
2022-11-16T05:21:56.750Z,135
2022-11-16T05:27:15.529Z,225
2022-11-16T05:37:54.516Z,225
2022-11-16T05:43:13.720Z,315
2022-11-16T05:53:52.523Z,225
2022-11-16T05:59:16.277Z,225
2022-11-16T06:04:30.187Z,225
2022-11-16T06:09:57.477Z,270
2022-11-16T06:20:27.834Z,270
2022-11-16T06:25:46.890Z,225
2022-11-16T06:31:06.168Z,270
2022-11-16T06:36:25.774Z,225
2022-11-16T06:41:44.847Z,270
2022-11-16T06:47:04.327Z,180
2022-11-16T06:52:23.843Z,270
2022-11-16T07:03:02.542Z,270
2022-11-16T07:08:29.420Z,270
2022-11-16T07:19:10.687Z,225
2022-11-16T07:24:19.946Z,270
2022-11-16T07:29:38.656Z,225
2022-11-16T07:34:59.348Z,270
2022-11-16T07:40:25.693Z,225
2022-11-16T07:45:36.363Z,270
2022-11-16T07:50:56.026Z,225
2022-11-16T08:01:34.905Z,225
2022-11-16T08:06:53.614Z,270
2022-11-16T08:12:13.137Z,225
2022-11-16T08:17:32.106Z,270
2022-11-16T08:22:51.295Z,270
2022-11-16T08:28:11.027Z,270
2022-11-16T08:38:49.172Z,225
2022-11-16T08:44:08.790Z,225
2022-11-16T08:54:47.875Z,225
2022-11-16T09:00:06.779Z,225
2022-11-16T09:05:25.832Z,225
2022-11-16T09:10:45.771Z,225
2022-11-16T09:21:33.533Z,225
2022-11-16T09:26:43.884Z,225
2022-11-16T09:32:03.297Z,180
2022-11-16T09:37:22.790Z,225
2022-11-16T09:42:41.620Z,270
2022-11-16T09:48:00.319Z,225
2022-11-16T09:53:19.447Z,270
2022-11-16T09:58:39.083Z,180
2022-11-16T10:03:58.348Z,225
2022-11-16T10:09:17.566Z,180
2022-11-16T10:19:55.932Z,225
2022-11-16T10:25:15.345Z,225
2022-11-16T10:31:08.433Z,180
2022-11-16T10:36:27.494Z,180
2022-11-16T10:41:46.414Z,225
2022-11-16T10:52:25.315Z,180
2022-11-16T10:57:44.528Z,225
2022-11-16T11:08:23.513Z,225
2022-11-16T11:13:43.096Z,225
2022-11-16T11:19:01.848Z,180
2022-11-16T11:24:42.693Z,225
2022-11-16T11:34:58.924Z,270
2022-11-16T11:40:18.376Z,225
2022-11-16T11:50:57.444Z,225
2022-11-16T11:56:16.311Z,225
2022-11-16T12:01:35.396Z,225
2022-11-16T12:06:54.819Z,270
2022-11-16T12:17:33.263Z,270
2022-11-16T12:22:52.533Z,225
2022-11-16T12:33:31.148Z,225
2022-11-16T12:38:50.726Z,270
2022-11-16T12:49:29.078Z,270
2022-11-16T12:55:18.912Z,225
2022-11-16T13:00:07.524Z,225
2022-11-16T13:05:26.674Z,225
2022-11-16T13:12:00.827Z,270
2022-11-16T13:16:06.294Z,225
2022-11-16T13:21:25.819Z,225
2022-11-16T13:32:03.108Z,225
2022-11-16T13:37:22.336Z,225
2022-11-16T13:42:41.091Z,270
2022-11-16T13:48:00.093Z,225
2022-11-16T13:58:38.480Z,225
2022-11-16T14:03:57.819Z,180
2022-11-16T14:14:36.472Z,180
2022-11-16T14:19:54.806Z,180
2022-11-16T14:30:33.843Z,225
2022-11-16T14:35:53.219Z,180
2022-11-16T14:41:12.220Z,225
2022-11-16T14:46:31.921Z,270
2022-11-16T14:57:09.424Z,225
2022-11-16T15:02:28.327Z,225
2022-11-16T15:13:06.328Z,180
2022-11-16T15:18:25.650Z,180
2022-11-16T15:23:48.954Z,45
2022-11-16T15:29:04.746Z,45
2022-11-16T15:34:23.871Z,0
2022-11-16T15:39:43.324Z,0
2022-11-16T15:50:22.517Z,315
2022-11-16T15:55:41.879Z,0
2022-11-16T16:01:01.155Z,0
2022-11-16T16:06:20.361Z,0
2022-11-16T16:16:58.978Z,45
2022-11-16T16:22:17.838Z,45
2022-11-16T16:32:57.083Z,90
2022-11-16T16:38:16.640Z,45
2022-11-16T16:48:55.161Z,0
2022-11-16T16:54:14.055Z,0
2022-11-16T16:59:33.809Z,90
2022-11-16T17:05:03.144Z,135
2022-11-16T17:15:31.008Z,135
2022-11-16T17:20:50.470Z,45
2022-11-16T17:31:29.120Z,45
2022-11-16T17:36:48.147Z,90
2022-11-16T17:42:07.202Z,90
2022-11-16T17:47:26.844Z,45
2022-11-16T17:58:05.139Z,45
2022-11-16T18:03:24.682Z,45
2022-11-16T18:14:02.441Z,90
2022-11-16T18:19:21.441Z,45
2022-11-16T18:24:40.949Z,90
2022-11-16T18:29:59.975Z,45
2022-11-16T18:40:38.488Z,90
2022-11-16T18:45:58.180Z,45
2022-11-16T18:56:36.459Z,45
2022-11-16T19:01:55.373Z,45
2022-11-16T19:12:35.405Z,45
2022-11-16T19:23:12.275Z,90
2022-11-16T19:28:31.713Z,45
2022-11-16T19:39:10.292Z,315
2022-11-16T19:44:29.947Z,45
2022-11-16T19:55:08.376Z,45
2022-11-16T20:00:28.055Z,45
2022-11-16T20:05:47.142Z,45
2022-11-16T20:11:06.269Z,45
2022-11-16T20:16:38.892Z,45
2022-11-16T20:21:44.818Z,90
2022-11-16T20:27:04.222Z,45
2022-11-16T20:32:23.046Z,0
2022-11-16T20:37:42.655Z,0
2022-11-16T20:43:01.420Z,180
2022-11-16T20:48:20.374Z,45
2022-11-16T20:53:39.823Z,270
2022-11-16T20:58:58.788Z,135
2022-11-16T21:04:18.051Z,45
2022-11-16T21:09:37.511Z,45
2022-11-16T21:14:57.232Z,45
2022-11-16T21:20:27.285Z,45
2022-11-16T21:25:35.517Z,45
2022-11-16T21:30:55.681Z,45
2022-11-16T21:36:14.407Z,90
2022-11-16T21:41:32.677Z,45
2022-11-16T21:46:51.979Z,45
2022-11-16T21:52:11.268Z,45
2022-11-16T21:57:30.646Z,45
2022-11-16T22:02:50.372Z,90
2022-11-16T22:08:09.602Z,45
2022-11-16T22:13:28.386Z,90
2022-11-16T22:18:47.755Z,45
2022-11-16T22:24:07.221Z,90
2022-11-16T22:29:26.606Z,45
2022-11-16T22:34:46.344Z,90
2022-11-16T22:40:06.074Z,90
2022-11-16T22:45:25.766Z,90
2022-11-16T22:50:45.305Z,45
2022-11-16T22:56:05.009Z,45
2022-11-16T23:01:23.933Z,45
2022-11-16T23:06:43.210Z,45
2022-11-16T23:12:02.351Z,45
2022-11-16T23:17:21.372Z,135
2022-11-16T23:22:40.493Z,270
2022-11-16T23:27:59.504Z,45
2022-11-16T23:33:18.661Z,0
2022-11-16T23:38:37.781Z,45
2022-11-16T23:43:57.125Z,0
2022-11-16T23:49:16.569Z,90
2022-11-16T23:54:36.561Z,45
2022-11-16T23:59:55.834Z,90
